sensor_id;sensor_type;location;lat;lon;timestamp;temperature;humidity
78522;SHT31;67819;51.972;5.678;2023-08-20T00:02:23;18.1;84.9
78522;SHT31;67819;51.972;5.678;2023-08-20T00:04:55;18.1;84.8
78522;SHT31;67819;51.972;5.678;2023-08-20T00:07:26;18.1;84.7
78522;SHT31;67819;51.972;5.678;2023-08-20T00:09:54;18.1;84.7
78522;SHT31;67819;51.972;5.678;2023-08-20T00:12:23;18.1;84.7
78522;SHT31;67819;51.972;5.678;2023-08-20T00:14:57;18.1;84.5
78522;SHT31;67819;51.972;5.678;2023-08-20T00:17:32;18.1;84.3
78522;SHT31;67819;51.972;5.678;2023-08-20T00:20:02;18.1;84.1
78522;SHT31;67819;51.972;5.678;2023-08-20T00:22:37;18.1;84.0
78522;SHT31;67819;51.972;5.678;2023-08-20T00:25:06;18.0;83.9
78522;SHT31;67819;51.972;5.678;2023-08-20T00:27:35;18.0;84.0
78522;SHT31;67819;51.972;5.678;2023-08-20T00:30:04;17.9;84.1
78522;SHT31;67819;51.972;5.678;2023-08-20T00:32:33;17.9;84.2
78522;SHT31;67819;51.972;5.678;2023-08-20T00:35:02;17.9;84.3
78522;SHT31;67819;51.972;5.678;2023-08-20T00:37:31;17.9;84.4
78522;SHT31;67819;51.972;5.678;2023-08-20T00:40:00;17.8;84.6
78522;SHT31;67819;51.972;5.678;2023-08-20T00:42:33;17.8;84.7
78522;SHT31;67819;51.972;5.678;2023-08-20T00:45:01;17.8;84.8
78522;SHT31;67819;51.972;5.678;2023-08-20T00:47:31;17.8;84.9
78522;SHT31;67819;51.972;5.678;2023-08-20T00:50:00;17.8;84.8
78522;SHT31;67819;51.972;5.678;2023-08-20T00:52:29;17.7;84.8
78522;SHT31;67819;51.972;5.678;2023-08-20T00:54:58;17.7;84.7
78522;SHT31;67819;51.972;5.678;2023-08-20T00:57:27;17.7;84.7
78522;SHT31;67819;51.972;5.678;2023-08-20T00:59:57;17.6;84.8
78522;SHT31;67819;51.972;5.678;2023-08-20T01:02:28;17.6;84.9
78522;SHT31;67819;51.972;5.678;2023-08-20T01:04:56;17.6;85.2
78522;SHT31;67819;51.972;5.678;2023-08-20T01:07:30;17.6;85.3
78522;SHT31;67819;51.972;5.678;2023-08-20T01:10:08;17.6;85.6
78522;SHT31;67819;51.972;5.678;2023-08-20T01:12:39;17.6;85.8
78522;SHT31;67819;51.972;5.678;2023-08-20T01:15:08;17.6;85.9
78522;SHT31;67819;51.972;5.678;2023-08-20T01:17:40;17.7;86.1
78522;SHT31;67819;51.972;5.678;2023-08-20T01:20:10;17.7;86.1
78522;SHT31;67819;51.972;5.678;2023-08-20T01:23:06;17.7;86.0
78522;SHT31;67819;51.972;5.678;2023-08-20T01:25:50;17.7;85.9
78522;SHT31;67819;51.972;5.678;2023-08-20T01:30:49;18.3;83.2
78522;SHT31;67819;51.972;5.678;2023-08-20T01:33:19;18.3;83.4
78522;SHT31;67819;51.972;5.678;2023-08-20T01:35:47;18.3;83.3
78522;SHT31;67819;51.972;5.678;2023-08-20T01:38:16;18.3;83.3
78522;SHT31;67819;51.972;5.678;2023-08-20T01:40:45;18.2;83.4
78522;SHT31;67819;51.972;5.678;2023-08-20T01:43:13;18.2;83.6
78522;SHT31;67819;51.972;5.678;2023-08-20T01:45:42;18.2;83.8
78522;SHT31;67819;51.972;5.678;2023-08-20T01:48:11;18.2;83.9
78522;SHT31;67819;51.972;5.678;2023-08-20T01:50:39;18.1;84.0
78522;SHT31;67819;51.972;5.678;2023-08-20T01:53:09;18.1;84.2
78522;SHT31;67819;51.972;5.678;2023-08-20T01:55:38;18.1;84.3
78522;SHT31;67819;51.972;5.678;2023-08-20T01:58:06;18.0;84.4
78522;SHT31;67819;51.972;5.678;2023-08-20T02:00:37;18.0;84.6
78522;SHT31;67819;51.972;5.678;2023-08-20T02:03:05;18.0;84.7
78522;SHT31;67819;51.972;5.678;2023-08-20T02:05:34;17.9;84.7
78522;SHT31;67819;51.972;5.678;2023-08-20T02:08:02;17.8;84.7
78522;SHT31;67819;51.972;5.678;2023-08-20T02:10:31;17.8;84.7
78522;SHT31;67819;51.972;5.678;2023-08-20T02:13:00;17.7;84.7
78522;SHT31;67819;51.972;5.678;2023-08-20T02:15:30;17.6;84.9
78522;SHT31;67819;51.972;5.678;2023-08-20T02:17:58;17.6;85.1
78522;SHT31;67819;51.972;5.678;2023-08-20T02:20:28;17.5;85.3
78522;SHT31;67819;51.972;5.678;2023-08-20T02:22:56;17.5;85.5
78522;SHT31;67819;51.972;5.678;2023-08-20T02:25:25;17.5;85.6
78522;SHT31;67819;51.972;5.678;2023-08-20T02:27:54;17.4;85.7
78522;SHT31;67819;51.972;5.678;2023-08-20T02:30:22;17.4;85.8
78522;SHT31;67819;51.972;5.678;2023-08-20T02:32:51;17.3;85.9
78522;SHT31;67819;51.972;5.678;2023-08-20T02:35:19;17.3;85.9
78522;SHT31;67819;51.972;5.678;2023-08-20T02:40:18;17.4;85.1
78522;SHT31;67819;51.972;5.678;2023-08-20T02:42:46;17.3;85.5
78522;SHT31;67819;51.972;5.678;2023-08-20T02:45:15;17.3;85.2
78522;SHT31;67819;51.972;5.678;2023-08-20T02:47:43;17.3;85.1
78522;SHT31;67819;51.972;5.678;2023-08-20T02:50:12;17.3;85.2
78522;SHT31;67819;51.972;5.678;2023-08-20T02:52:41;17.3;85.2
78522;SHT31;67819;51.972;5.678;2023-08-20T02:55:10;17.2;85.3
78522;SHT31;67819;51.972;5.678;2023-08-20T02:57:40;17.2;85.3
78522;SHT31;67819;51.972;5.678;2023-08-20T03:00:09;17.1;85.4
78522;SHT31;67819;51.972;5.678;2023-08-20T03:02:40;17.1;85.6
78522;SHT31;67819;51.972;5.678;2023-08-20T03:05:10;17.0;85.8
78522;SHT31;67819;51.972;5.678;2023-08-20T03:07:38;17.0;86.0
78522;SHT31;67819;51.972;5.678;2023-08-20T03:10:07;16.9;86.1
78522;SHT31;67819;51.972;5.678;2023-08-20T03:12:36;16.9;86.2
78522;SHT31;67819;51.972;5.678;2023-08-20T03:15:07;16.8;86.4
78522;SHT31;67819;51.972;5.678;2023-08-20T03:17:35;16.8;86.7
78522;SHT31;67819;51.972;5.678;2023-08-20T03:20:05;16.8;86.9
78522;SHT31;67819;51.972;5.678;2023-08-20T03:22:36;16.8;87.2
78522;SHT31;67819;51.972;5.678;2023-08-20T03:25:06;16.7;87.5
78522;SHT31;67819;51.972;5.678;2023-08-20T03:27:34;16.7;87.7
78522;SHT31;67819;51.972;5.678;2023-08-20T03:30:04;16.7;87.9
78522;SHT31;67819;51.972;5.678;2023-08-20T03:32:33;16.7;88.0
78522;SHT31;67819;51.972;5.678;2023-08-20T03:35:01;16.7;88.1
78522;SHT31;67819;51.972;5.678;2023-08-20T03:37:30;16.7;88.2
78522;SHT31;67819;51.972;5.678;2023-08-20T03:39:58;16.7;88.2
78522;SHT31;67819;51.972;5.678;2023-08-20T03:42:27;16.7;88.2
78522;SHT31;67819;51.972;5.678;2023-08-20T03:44:55;16.7;88.2
78522;SHT31;67819;51.972;5.678;2023-08-20T03:47:25;16.7;88.3
78522;SHT31;67819;51.972;5.678;2023-08-20T03:49:54;16.7;88.3
78522;SHT31;67819;51.972;5.678;2023-08-20T03:57:16;17.1;86.3
78522;SHT31;67819;51.972;5.678;2023-08-20T03:59:45;17.1;86.7
78522;SHT31;67819;51.972;5.678;2023-08-20T04:02:14;17.1;86.4
78522;SHT31;67819;51.972;5.678;2023-08-20T04:04:43;17.1;86.3
78522;SHT31;67819;51.972;5.678;2023-08-20T04:07:11;17.1;86.4
78522;SHT31;67819;51.972;5.678;2023-08-20T04:09:39;17.1;86.5
78522;SHT31;67819;51.972;5.678;2023-08-20T04:12:09;17.1;86.6
78522;SHT31;67819;51.972;5.678;2023-08-20T04:14:37;17.0;86.6
78522;SHT31;67819;51.972;5.678;2023-08-20T04:17:06;17.0;86.7
78522;SHT31;67819;51.972;5.678;2023-08-20T04:19:34;17.0;86.8
78522;SHT31;67819;51.972;5.678;2023-08-20T04:22:03;16.9;87.0
78522;SHT31;67819;51.972;5.678;2023-08-20T04:24:32;17.0;86.4
78522;SHT31;67819;51.972;5.678;2023-08-20T04:27:01;17.0;86.3
78522;SHT31;67819;51.972;5.678;2023-08-20T04:29:30;17.0;86.5
78522;SHT31;67819;51.972;5.678;2023-08-20T04:31:58;17.1;86.2
78522;SHT31;67819;51.972;5.678;2023-08-20T04:36:54;16.8;86.4
78522;SHT31;67819;51.972;5.678;2023-08-20T04:39:22;16.8;86.5
78522;SHT31;67819;51.972;5.678;2023-08-20T04:41:50;16.8;86.3
78522;SHT31;67819;51.972;5.678;2023-08-20T04:44:19;16.8;86.1
78522;SHT31;67819;51.972;5.678;2023-08-20T04:46:48;16.8;86.1
78522;SHT31;67819;51.972;5.678;2023-08-20T04:49:16;16.7;86.0
78522;SHT31;67819;51.972;5.678;2023-08-20T04:51:45;16.7;86.0
78522;SHT31;67819;51.972;5.678;2023-08-20T04:54:13;16.7;86.1
78522;SHT31;67819;51.972;5.678;2023-08-20T04:56:42;16.6;86.2
78522;SHT31;67819;51.972;5.678;2023-08-20T04:59:10;16.6;86.5
78522;SHT31;67819;51.972;5.678;2023-08-20T05:01:39;16.5;86.7
78522;SHT31;67819;51.972;5.678;2023-08-20T05:04:08;16.5;86.9
78522;SHT31;67819;51.972;5.678;2023-08-20T05:06:36;16.5;87.1
78522;SHT31;67819;51.972;5.678;2023-08-20T05:09:05;16.5;87.2
78522;SHT31;67819;51.972;5.678;2023-08-20T05:11:34;16.5;87.4
78522;SHT31;67819;51.972;5.678;2023-08-20T05:14:02;16.4;87.5
78522;SHT31;67819;51.972;5.678;2023-08-20T05:16:31;16.4;87.7
78522;SHT31;67819;51.972;5.678;2023-08-20T05:19:00;16.4;87.9
78522;SHT31;67819;51.972;5.678;2023-08-20T05:21:28;16.4;88.4
78522;SHT31;67819;51.972;5.678;2023-08-20T05:23:57;16.5;88.8
78522;SHT31;67819;51.972;5.678;2023-08-20T05:26:27;16.5;89.3
78522;SHT31;67819;51.972;5.678;2023-08-20T05:28:55;16.6;90.0
78522;SHT31;67819;51.972;5.678;2023-08-20T05:31:26;16.8;90.7
78522;SHT31;67819;51.972;5.678;2023-08-20T05:33:54;17.0;90.8
78522;SHT31;67819;51.972;5.678;2023-08-20T05:36:25;17.2;90.7
78522;SHT31;67819;51.972;5.678;2023-08-20T05:38:53;17.4;90.2
78522;SHT31;67819;51.972;5.678;2023-08-20T05:41:22;17.5;89.7
78522;SHT31;67819;51.972;5.678;2023-08-20T05:43:50;17.7;89.2
78522;SHT31;67819;51.972;5.678;2023-08-20T05:46:19;17.9;88.6
78522;SHT31;67819;51.972;5.678;2023-08-20T05:48:47;18.0;88.0
78522;SHT31;67819;51.972;5.678;2023-08-20T05:51:16;18.1;87.4
78522;SHT31;67819;51.972;5.678;2023-08-20T05:53:46;18.2;86.9
78522;SHT31;67819;51.972;5.678;2023-08-20T05:56:17;18.3;86.4
78522;SHT31;67819;51.972;5.678;2023-08-20T05:58:45;18.3;86.0
78522;SHT31;67819;51.972;5.678;2023-08-20T06:01:14;18.3;85.6
78522;SHT31;67819;51.972;5.678;2023-08-20T06:06:07;18.8;82.7
78522;SHT31;67819;51.972;5.678;2023-08-20T06:08:36;18.8;83.0
78522;SHT31;67819;51.972;5.678;2023-08-20T06:11:04;18.9;82.8
78522;SHT31;67819;51.972;5.678;2023-08-20T06:13:32;18.9;82.9
78522;SHT31;67819;51.972;5.678;2023-08-20T06:16:01;18.9;82.9
78522;SHT31;67819;51.972;5.678;2023-08-20T06:18:29;18.9;83.1
78522;SHT31;67819;51.972;5.678;2023-08-20T06:20:58;18.9;83.1
78522;SHT31;67819;51.972;5.678;2023-08-20T06:23:26;18.9;83.2
78522;SHT31;67819;51.972;5.678;2023-08-20T06:25:55;18.8;83.3
78522;SHT31;67819;51.972;5.678;2023-08-20T06:28:23;18.8;83.3
78522;SHT31;67819;51.972;5.678;2023-08-20T06:30:52;18.8;83.4
78522;SHT31;67819;51.972;5.678;2023-08-20T06:35:49;19.0;82.7
78522;SHT31;67819;51.972;5.678;2023-08-20T06:38:18;19.0;82.7
78522;SHT31;67819;51.972;5.678;2023-08-20T06:40:46;19.0;82.5
78522;SHT31;67819;51.972;5.678;2023-08-20T06:43:14;19.0;82.5
78522;SHT31;67819;51.972;5.678;2023-08-20T06:45:43;19.0;82.6
78522;SHT31;67819;51.972;5.678;2023-08-20T06:48:11;19.0;82.7
78522;SHT31;67819;51.972;5.678;2023-08-20T06:50:41;19.0;82.8
78522;SHT31;67819;51.972;5.678;2023-08-20T06:53:09;19.0;82.9
78522;SHT31;67819;51.972;5.678;2023-08-20T06:55:40;19.0;82.9
78522;SHT31;67819;51.972;5.678;2023-08-20T06:58:08;19.0;82.7
78522;SHT31;67819;51.972;5.678;2023-08-20T07:00:37;19.0;82.7
78522;SHT31;67819;51.972;5.678;2023-08-20T07:03:09;19.2;81.6
78522;SHT31;67819;51.972;5.678;2023-08-20T07:05:38;19.2;81.5
78522;SHT31;67819;51.972;5.678;2023-08-20T07:08:06;19.3;81.2
78522;SHT31;67819;51.972;5.678;2023-08-20T07:10:35;19.3;81.1
78522;SHT31;67819;51.972;5.678;2023-08-20T07:13:03;19.3;81.0
78522;SHT31;67819;51.972;5.678;2023-08-20T07:15:39;19.3;80.8
78522;SHT31;67819;51.972;5.678;2023-08-20T07:20:35;19.4;80.4
78522;SHT31;67819;51.972;5.678;2023-08-20T07:23:05;19.4;80.4
78522;SHT31;67819;51.972;5.678;2023-08-20T07:25:36;19.5;80.2
78522;SHT31;67819;51.972;5.678;2023-08-20T07:30:32;19.6;80.1
78522;SHT31;67819;51.972;5.678;2023-08-20T07:35:32;19.7;79.8
78522;SHT31;67819;51.972;5.678;2023-08-20T07:38:02;19.8;79.8
78522;SHT31;67819;51.972;5.678;2023-08-20T07:40:30;19.8;79.3
78522;SHT31;67819;51.972;5.678;2023-08-20T07:42:58;19.8;79.1
78522;SHT31;67819;51.972;5.678;2023-08-20T07:45:27;19.8;79.1
78522;SHT31;67819;51.972;5.678;2023-08-20T07:47:56;19.8;79.1
78522;SHT31;67819;51.972;5.678;2023-08-20T07:50:24;19.8;79.3
78522;SHT31;67819;51.972;5.678;2023-08-20T07:52:52;19.9;78.8
78522;SHT31;67819;51.972;5.678;2023-08-20T07:55:22;20.0;78.9
78522;SHT31;67819;51.972;5.678;2023-08-20T07:57:50;20.1;78.7
78522;SHT31;67819;51.972;5.678;2023-08-20T08:00:19;20.1;78.6
78522;SHT31;67819;51.972;5.678;2023-08-20T08:02:48;20.1;78.8
78522;SHT31;67819;51.972;5.678;2023-08-20T08:05:17;20.2;78.9
78522;SHT31;67819;51.972;5.678;2023-08-20T08:07:45;20.2;79.1
78522;SHT31;67819;51.972;5.678;2023-08-20T08:10:15;20.2;79.1
78522;SHT31;67819;51.972;5.678;2023-08-20T08:12:46;20.2;79.1
78522;SHT31;67819;51.972;5.678;2023-08-20T08:15:16;20.2;79.3
78522;SHT31;67819;51.972;5.678;2023-08-20T08:17:45;20.2;79.5
78522;SHT31;67819;51.972;5.678;2023-08-20T08:20:14;20.2;79.7
78522;SHT31;67819;51.972;5.678;2023-08-20T08:22:43;20.2;79.8
78522;SHT31;67819;51.972;5.678;2023-08-20T08:27:40;20.7;77.3
78522;SHT31;67819;51.972;5.678;2023-08-20T08:30:09;20.8;77.2
78522;SHT31;67819;51.972;5.678;2023-08-20T08:32:38;20.8;76.8
78522;SHT31;67819;51.972;5.678;2023-08-20T08:35:07;20.9;76.7
78522;SHT31;67819;51.972;5.678;2023-08-20T08:37:37;20.9;76.2
78522;SHT31;67819;51.972;5.678;2023-08-20T08:40:07;20.9;76.0
78522;SHT31;67819;51.972;5.678;2023-08-20T08:42:38;20.9;75.7
78522;SHT31;67819;51.972;5.678;2023-08-20T08:45:11;20.9;75.6
78522;SHT31;67819;51.972;5.678;2023-08-20T08:47:41;20.9;75.6
78522;SHT31;67819;51.972;5.678;2023-08-20T08:50:12;20.9;75.5
78522;SHT31;67819;51.972;5.678;2023-08-20T08:52:42;21.0;75.4
78522;SHT31;67819;51.972;5.678;2023-08-20T08:55:13;21.0;75.4
78522;SHT31;67819;51.972;5.678;2023-08-20T08:57:41;21.0;75.0
78522;SHT31;67819;51.972;5.678;2023-08-20T09:00:13;21.1;74.4
78522;SHT31;67819;51.972;5.678;2023-08-20T09:02:43;21.1;74.3
78522;SHT31;67819;51.972;5.678;2023-08-20T09:05:13;21.1;73.9
78522;SHT31;67819;51.972;5.678;2023-08-20T09:07:43;21.1;73.8
78522;SHT31;67819;51.972;5.678;2023-08-20T09:10:12;21.1;73.9
78522;SHT31;67819;51.972;5.678;2023-08-20T09:12:47;21.2;73.9
78522;SHT31;67819;51.972;5.678;2023-08-20T09:15:16;21.2;73.7
78522;SHT31;67819;51.972;5.678;2023-08-20T09:17:44;21.2;73.5
78522;SHT31;67819;51.972;5.678;2023-08-20T09:20:14;21.3;73.3
78522;SHT31;67819;51.972;5.678;2023-08-20T09:22:50;21.3;72.8
78522;SHT31;67819;51.972;5.678;2023-08-20T09:25:18;21.3;72.8
78522;SHT31;67819;51.972;5.678;2023-08-20T09:27:47;21.4;72.9
78522;SHT31;67819;51.972;5.678;2023-08-20T09:30:19;21.4;72.7
78522;SHT31;67819;51.972;5.678;2023-08-20T09:33:07;21.5;72.4
78522;SHT31;67819;51.972;5.678;2023-08-20T09:35:36;21.5;72.0
78522;SHT31;67819;51.972;5.678;2023-08-20T09:45:28;22.4;68.2
78522;SHT31;67819;51.972;5.678;2023-08-20T09:47:58;22.4;68.3
78522;SHT31;67819;51.972;5.678;2023-08-20T09:50:28;22.5;68.1
78522;SHT31;67819;51.972;5.678;2023-08-20T09:53:06;22.6;67.8
78522;SHT31;67819;51.972;5.678;2023-08-20T09:55:41;22.6;67.7
78522;SHT31;67819;51.972;5.678;2023-08-20T09:58:11;22.6;67.7
78522;SHT31;67819;51.972;5.678;2023-08-20T10:00:42;22.7;67.3
78522;SHT31;67819;51.972;5.678;2023-08-20T10:03:11;22.7;66.7
78522;SHT31;67819;51.972;5.678;2023-08-20T10:05:40;22.7;66.2
78522;SHT31;67819;51.972;5.678;2023-08-20T10:08:09;22.7;66.0
78522;SHT31;67819;51.972;5.678;2023-08-20T10:10:39;22.7;65.5
78522;SHT31;67819;51.972;5.678;2023-08-20T10:13:08;22.7;65.5
78522;SHT31;67819;51.972;5.678;2023-08-20T10:15:38;22.7;64.3
78522;SHT31;67819;51.972;5.678;2023-08-20T10:18:08;22.7;64.6
78522;SHT31;67819;51.972;5.678;2023-08-20T10:20:39;22.7;64.7
78522;SHT31;67819;51.972;5.678;2023-08-20T10:23:06;23.1;63.1
78522;SHT31;67819;51.972;5.678;2023-08-20T10:25:41;23.2;63.2
78522;SHT31;67819;51.972;5.678;2023-08-20T10:31:04;23.4;62.2
78522;SHT31;67819;51.972;5.678;2023-08-20T10:33:36;23.4;62.3
78522;SHT31;67819;51.972;5.678;2023-08-20T10:36:10;23.5;62.2
78522;SHT31;67819;51.972;5.678;2023-08-20T10:38:38;23.5;62.4
78522;SHT31;67819;51.972;5.678;2023-08-20T10:41:09;23.5;62.7
78522;SHT31;67819;51.972;5.678;2023-08-20T10:43:40;23.5;62.9
78522;SHT31;67819;51.972;5.678;2023-08-20T10:46:14;23.5;62.1
78522;SHT31;67819;51.972;5.678;2023-08-20T10:48:47;23.5;62.0
78522;SHT31;67819;51.972;5.678;2023-08-20T10:51:17;23.5;61.9
78522;SHT31;67819;51.972;5.678;2023-08-20T10:54:06;23.5;60.9
78522;SHT31;67819;51.972;5.678;2023-08-20T10:56:43;23.8;60.1
78522;SHT31;67819;51.972;5.678;2023-08-20T10:59:14;23.9;60.1
78522;SHT31;67819;51.972;5.678;2023-08-20T11:01:46;24.0;59.7
78522;SHT31;67819;51.972;5.678;2023-08-20T11:04:15;24.0;59.1
78522;SHT31;67819;51.972;5.678;2023-08-20T11:06:46;24.0;59.1
78522;SHT31;67819;51.972;5.678;2023-08-20T11:09:15;24.0;59.2
78522;SHT31;67819;51.972;5.678;2023-08-20T11:11:44;24.0;59.5
78522;SHT31;67819;51.972;5.678;2023-08-20T11:14:14;24.0;59.7
78522;SHT31;67819;51.972;5.678;2023-08-20T11:16:43;24.0;58.9
78522;SHT31;67819;51.972;5.678;2023-08-20T11:19:13;24.0;59.0
78522;SHT31;67819;51.972;5.678;2023-08-20T11:21:42;24.0;59.3
78522;SHT31;67819;51.972;5.678;2023-08-20T11:24:12;24.0;59.8
78522;SHT31;67819;51.972;5.678;2023-08-20T11:26:43;24.0;60.2
78522;SHT31;67819;51.972;5.678;2023-08-20T11:29:13;24.1;60.5
78522;SHT31;67819;51.972;5.678;2023-08-20T11:31:46;24.1;60.0
78522;SHT31;67819;51.972;5.678;2023-08-20T11:34:14;24.1;59.6
78522;SHT31;67819;51.972;5.678;2023-08-20T11:36:44;24.2;59.4
78522;SHT31;67819;51.972;5.678;2023-08-20T11:39:14;24.2;59.2
78522;SHT31;67819;51.972;5.678;2023-08-20T11:41:43;24.2;59.0
78522;SHT31;67819;51.972;5.678;2023-08-20T11:44:22;24.3;58.7
78522;SHT31;67819;51.972;5.678;2023-08-20T11:46:55;24.3;58.5
78522;SHT31;67819;51.972;5.678;2023-08-20T11:49:28;24.3;58.3
78522;SHT31;67819;51.972;5.678;2023-08-20T11:51:57;24.3;58.3
78522;SHT31;67819;51.972;5.678;2023-08-20T11:54:26;24.3;58.7
78522;SHT31;67819;51.972;5.678;2023-08-20T11:59:28;25.0;56.2
78522;SHT31;67819;51.972;5.678;2023-08-20T12:01:58;25.1;56.1
78522;SHT31;67819;51.972;5.678;2023-08-20T12:04:28;25.1;56.0
78522;SHT31;67819;51.972;5.678;2023-08-20T12:07:05;25.2;55.9
78522;SHT31;67819;51.972;5.678;2023-08-20T12:09:34;25.2;55.7
78522;SHT31;67819;51.972;5.678;2023-08-20T12:12:05;25.2;55.8
78522;SHT31;67819;51.972;5.678;2023-08-20T12:14:34;25.2;56.3
78522;SHT31;67819;51.972;5.678;2023-08-20T12:17:05;25.2;56.5
78522;SHT31;67819;51.972;5.678;2023-08-20T12:19:34;25.3;56.5
78522;SHT31;67819;51.972;5.678;2023-08-20T12:22:02;25.3;56.1
78522;SHT31;67819;51.972;5.678;2023-08-20T12:27:03;25.4;55.9
78522;SHT31;67819;51.972;5.678;2023-08-20T12:29:31;25.5;55.7
78522;SHT31;67819;51.972;5.678;2023-08-20T12:32:00;25.7;55.3
78522;SHT31;67819;51.972;5.678;2023-08-20T12:34:30;25.7;55.2
78522;SHT31;67819;51.972;5.678;2023-08-20T12:37:01;25.8;54.2
78522;SHT31;67819;51.972;5.678;2023-08-20T12:39:30;25.8;54.2
78522;SHT31;67819;51.972;5.678;2023-08-20T12:41:58;25.9;53.7
78522;SHT31;67819;51.972;5.678;2023-08-20T12:44:27;25.9;53.7
78522;SHT31;67819;51.972;5.678;2023-08-20T12:46:55;25.9;53.9
78522;SHT31;67819;51.972;5.678;2023-08-20T12:49:23;25.9;53.8
78522;SHT31;67819;51.972;5.678;2023-08-20T12:51:52;25.9;54.3
78522;SHT31;67819;51.972;5.678;2023-08-20T12:54:20;25.9;53.9
78522;SHT31;67819;51.972;5.678;2023-08-20T12:56:49;26.0;54.3
78522;SHT31;67819;51.972;5.678;2023-08-20T12:59:17;26.0;54.4
78522;SHT31;67819;51.972;5.678;2023-08-20T13:01:46;26.0;54.5
78522;SHT31;67819;51.972;5.678;2023-08-20T13:04:16;26.0;54.2
78522;SHT31;67819;51.972;5.678;2023-08-20T13:09:12;25.9;53.5
78522;SHT31;67819;51.972;5.678;2023-08-20T13:11:43;25.7;53.3
78522;SHT31;67819;51.972;5.678;2023-08-20T13:14:13;25.7;53.2
78522;SHT31;67819;51.972;5.678;2023-08-20T13:16:42;25.7;53.2
78522;SHT31;67819;51.972;5.678;2023-08-20T13:19:11;25.8;53.5
78522;SHT31;67819;51.972;5.678;2023-08-20T13:21:40;25.8;53.6
78522;SHT31;67819;51.972;5.678;2023-08-20T13:24:09;25.8;54.0
78522;SHT31;67819;51.972;5.678;2023-08-20T13:26:38;25.9;54.4
78522;SHT31;67819;51.972;5.678;2023-08-20T13:29:06;26.1;54.7
78522;SHT31;67819;51.972;5.678;2023-08-20T13:31:35;26.3;53.4
78522;SHT31;67819;51.972;5.678;2023-08-20T13:34:04;26.4;52.9
78522;SHT31;67819;51.972;5.678;2023-08-20T13:36:33;26.4;52.6
78522;SHT31;67819;51.972;5.678;2023-08-20T13:39:01;26.5;53.1
78522;SHT31;67819;51.972;5.678;2023-08-20T13:41:31;26.6;53.7
78522;SHT31;67819;51.972;5.678;2023-08-20T13:43:59;26.7;53.5
78522;SHT31;67819;51.972;5.678;2023-08-20T13:46:29;26.9;53.3
78522;SHT31;67819;51.972;5.678;2023-08-20T13:48:57;27.1;52.7
78522;SHT31;67819;51.972;5.678;2023-08-20T13:51:26;27.2;52.7
78522;SHT31;67819;51.972;5.678;2023-08-20T13:53:54;27.4;52.5
78522;SHT31;67819;51.972;5.678;2023-08-20T13:56:24;27.5;52.3
78522;SHT31;67819;51.972;5.678;2023-08-20T13:58:53;27.7;52.1
78522;SHT31;67819;51.972;5.678;2023-08-20T14:01:22;27.9;52.2
78522;SHT31;67819;51.972;5.678;2023-08-20T14:03:52;28.1;51.7
78522;SHT31;67819;51.972;5.678;2023-08-20T14:06:21;28.3;50.7
78522;SHT31;67819;51.972;5.678;2023-08-20T14:08:50;28.3;49.3
78522;SHT31;67819;51.972;5.678;2023-08-20T14:11:18;28.1;48.5
78522;SHT31;67819;51.972;5.678;2023-08-20T14:13:47;27.8;48.9
78522;SHT31;67819;51.972;5.678;2023-08-20T14:16:15;27.6;48.9
78522;SHT31;67819;51.972;5.678;2023-08-20T14:18:44;27.4;48.8
78522;SHT31;67819;51.972;5.678;2023-08-20T14:21:12;27.4;49.5
78522;SHT31;67819;51.972;5.678;2023-08-20T14:23:41;27.4;49.8
78522;SHT31;67819;51.972;5.678;2023-08-20T14:26:12;27.4;49.9
78522;SHT31;67819;51.972;5.678;2023-08-20T14:28:40;27.5;50.2
78522;SHT31;67819;51.972;5.678;2023-08-20T14:31:10;27.7;50.2
78522;SHT31;67819;51.972;5.678;2023-08-20T14:33:38;27.7;49.6
78522;SHT31;67819;51.972;5.678;2023-08-20T14:36:07;27.8;49.7
78522;SHT31;67819;51.972;5.678;2023-08-20T14:38:36;27.8;49.3
78522;SHT31;67819;51.972;5.678;2023-08-20T14:41:04;27.7;48.9
78522;SHT31;67819;51.972;5.678;2023-08-20T14:43:33;27.6;48.6
78522;SHT31;67819;51.972;5.678;2023-08-20T14:46:04;27.6;48.4
78522;SHT31;67819;51.972;5.678;2023-08-20T14:48:32;27.4;48.2
78522;SHT31;67819;51.972;5.678;2023-08-20T14:51:01;27.3;48.5
78522;SHT31;67819;51.972;5.678;2023-08-20T14:53:30;27.2;48.9
78522;SHT31;67819;51.972;5.678;2023-08-20T14:55:59;27.2;49.3
78522;SHT31;67819;51.972;5.678;2023-08-20T15:00:54;26.8;49.4
78522;SHT31;67819;51.972;5.678;2023-08-20T15:03:22;26.7;49.7
78522;SHT31;67819;51.972;5.678;2023-08-20T15:05:51;26.8;49.5
78522;SHT31;67819;51.972;5.678;2023-08-20T15:08:19;26.8;49.6
78522;SHT31;67819;51.972;5.678;2023-08-20T15:10:57;26.8;49.8
78522;SHT31;67819;51.972;5.678;2023-08-20T15:13:30;26.8;49.4
78522;SHT31;67819;51.972;5.678;2023-08-20T15:15:58;26.8;49.2
78522;SHT31;67819;51.972;5.678;2023-08-20T15:18:27;26.8;49.3
78522;SHT31;67819;51.972;5.678;2023-08-20T15:20:57;26.8;49.8
78522;SHT31;67819;51.972;5.678;2023-08-20T15:23:27;26.8;49.6
78522;SHT31;67819;51.972;5.678;2023-08-20T15:25:56;26.7;49.9
78522;SHT31;67819;51.972;5.678;2023-08-20T15:28:25;26.7;50.0
78522;SHT31;67819;51.972;5.678;2023-08-20T15:30:56;26.6;50.0
78522;SHT31;67819;51.972;5.678;2023-08-20T15:33:25;26.6;49.8
78522;SHT31;67819;51.972;5.678;2023-08-20T15:35:53;26.6;49.8
78522;SHT31;67819;51.972;5.678;2023-08-20T15:38:22;26.7;49.3
78522;SHT31;67819;51.972;5.678;2023-08-20T15:40:51;26.6;49.7
78522;SHT31;67819;51.972;5.678;2023-08-20T15:43:19;26.7;49.5
78522;SHT31;67819;51.972;5.678;2023-08-20T15:45:48;26.7;49.5
78522;SHT31;67819;51.972;5.678;2023-08-20T15:48:16;26.7;49.7
78522;SHT31;67819;51.972;5.678;2023-08-20T15:50:45;26.7;49.8
78522;SHT31;67819;51.972;5.678;2023-08-20T15:53:14;26.6;49.9
78522;SHT31;67819;51.972;5.678;2023-08-20T15:55:45;26.6;50.0
78522;SHT31;67819;51.972;5.678;2023-08-20T15:58:14;26.6;50.3
78522;SHT31;67819;51.972;5.678;2023-08-20T16:00:43;26.6;50.4
78522;SHT31;67819;51.972;5.678;2023-08-20T16:03:11;26.6;50.4
78522;SHT31;67819;51.972;5.678;2023-08-20T16:05:44;26.5;50.5
78522;SHT31;67819;51.972;5.678;2023-08-20T16:08:13;26.4;50.7
78522;SHT31;67819;51.972;5.678;2023-08-20T16:10:42;26.3;50.9
78522;SHT31;67819;51.972;5.678;2023-08-20T16:13:11;26.3;51.0
78522;SHT31;67819;51.972;5.678;2023-08-20T16:15:39;26.3;51.2
78522;SHT31;67819;51.972;5.678;2023-08-20T16:18:08;26.3;51.4
78522;SHT31;67819;51.972;5.678;2023-08-20T16:20:36;26.3;51.5
78522;SHT31;67819;51.972;5.678;2023-08-20T16:23:05;26.3;51.4
78522;SHT31;67819;51.972;5.678;2023-08-20T16:25:33;26.3;51.3
78522;SHT31;67819;51.972;5.678;2023-08-20T16:28:06;26.2;51.1
78522;SHT31;67819;51.972;5.678;2023-08-20T16:30:37;26.2;51.2
78522;SHT31;67819;51.972;5.678;2023-08-20T16:33:07;26.1;51.4
78522;SHT31;67819;51.972;5.678;2023-08-20T16:35:36;26.1;51.5
78522;SHT31;67819;51.972;5.678;2023-08-20T16:38:05;26.0;51.6
78522;SHT31;67819;51.972;5.678;2023-08-20T16:40:34;26.0;51.9
78522;SHT31;67819;51.972;5.678;2023-08-20T16:43:02;26.0;51.6
78522;SHT31;67819;51.972;5.678;2023-08-20T16:45:32;25.9;51.7
78522;SHT31;67819;51.972;5.678;2023-08-20T16:48:01;25.8;51.9
78522;SHT31;67819;51.972;5.678;2023-08-20T16:50:29;25.8;52.3
78522;SHT31;67819;51.972;5.678;2023-08-20T16:52:58;25.8;52.6
78522;SHT31;67819;51.972;5.678;2023-08-20T16:55:26;25.8;53.1
78522;SHT31;67819;51.972;5.678;2023-08-20T16:57:55;25.9;53.2
78522;SHT31;67819;51.972;5.678;2023-08-20T17:00:25;26.0;53.0
78522;SHT31;67819;51.972;5.678;2023-08-20T17:02:54;26.1;52.8
78522;SHT31;67819;51.972;5.678;2023-08-20T17:05:22;26.1;52.7